sensor_id;sensor_type;location;lat;lon;timestamp;temperature;humidity
7666;DHT22;3875;46.562;4.898;2022-09-09T00:01:53;20.50;71.00
7666;DHT22;3875;46.562;4.898;2022-09-09T00:04:37;20.50;70.70
7666;DHT22;3875;46.562;4.898;2022-09-09T00:07:25;20.40;70.90
7666;DHT22;3875;46.562;4.898;2022-09-09T00:15:39;20.30;71.30
7666;DHT22;3875;46.562;4.898;2022-09-09T00:21:07;20.20;71.40
7666;DHT22;3875;46.562;4.898;2022-09-09T00:23:37;20.20;71.60
7666;DHT22;3875;46.562;4.898;2022-09-09T00:26:07;20.10;71.60
7666;DHT22;3875;46.562;4.898;2022-09-09T00:28:39;20.00;71.80
7666;DHT22;3875;46.562;4.898;2022-09-09T00:31:23;20.00;72.10
7666;DHT22;3875;46.562;4.898;2022-09-09T00:33:50;20.00;72.10
7666;DHT22;3875;46.562;4.898;2022-09-09T00:36:24;19.90;72.20
7666;DHT22;3875;46.562;4.898;2022-09-09T00:38:56;19.90;72.30
7666;DHT22;3875;46.562;4.898;2022-09-09T00:51:46;19.50;73.20
7666;DHT22;3875;46.562;4.898;2022-09-09T00:57:03;19.50;73.30
7666;DHT22;3875;46.562;4.898;2022-09-09T00:59:40;19.40;73.30
7666;DHT22;3875;46.562;4.898;2022-09-09T01:02:28;19.40;73.30
7666;DHT22;3875;46.562;4.898;2022-09-09T01:04:54;19.40;73.70
7666;DHT22;3875;46.562;4.898;2022-09-09T01:07:23;19.30;73.90
7666;DHT22;3875;46.562;4.898;2022-09-09T01:09:58;19.20;74.20
7666;DHT22;3875;46.562;4.898;2022-09-09T01:12:45;19.20;74.20
7666;DHT22;3875;46.562;4.898;2022-09-09T01:15:22;19.20;74.00
7666;DHT22;3875;46.562;4.898;2022-09-09T01:18:11;19.20;74.00
7666;DHT22;3875;46.562;4.898;2022-09-09T01:20:49;19.30;74.10
7666;DHT22;3875;46.562;4.898;2022-09-09T01:26:15;19.30;73.80
7666;DHT22;3875;46.562;4.898;2022-09-09T01:28:50;19.20;74.00
7666;DHT22;3875;46.562;4.898;2022-09-09T01:31:36;19.10;74.20
7666;DHT22;3875;46.562;4.898;2022-09-09T01:34:04;19.10;74.20
7666;DHT22;3875;46.562;4.898;2022-09-09T01:37:07;19.10;74.40
7666;DHT22;3875;46.562;4.898;2022-09-09T01:39:34;19.10;74.40
7666;DHT22;3875;46.562;4.898;2022-09-09T01:42:02;19.10;74.30
7666;DHT22;3875;46.562;4.898;2022-09-09T01:44:29;19.10;74.30
7666;DHT22;3875;46.562;4.898;2022-09-09T01:46:55;19.10;74.30
7666;DHT22;3875;46.562;4.898;2022-09-09T01:58:57;18.90;75.10
7666;DHT22;3875;46.562;4.898;2022-09-09T02:01:42;18.80;75.30
7666;DHT22;3875;46.562;4.898;2022-09-09T02:04:44;18.70;76.10
7666;DHT22;3875;46.562;4.898;2022-09-09T02:10:19;18.60;76.30
7666;DHT22;3875;46.562;4.898;2022-09-09T02:12:51;18.60;76.70
7666;DHT22;3875;46.562;4.898;2022-09-09T02:15:28;18.60;76.80
7666;DHT22;3875;46.562;4.898;2022-09-09T02:17:57;18.50;77.20
7666;DHT22;3875;46.562;4.898;2022-09-09T02:20:24;18.50;77.10
7666;DHT22;3875;46.562;4.898;2022-09-09T02:22:53;18.50;77.30
7666;DHT22;3875;46.562;4.898;2022-09-09T02:25:23;18.60;77.50
7666;DHT22;3875;46.562;4.898;2022-09-09T02:27:51;18.60;77.20
7666;DHT22;3875;46.562;4.898;2022-09-09T02:30:20;18.70;77.00
7666;DHT22;3875;46.562;4.898;2022-09-09T02:32:48;18.70;77.00
7666;DHT22;3875;46.562;4.898;2022-09-09T02:35:21;18.70;77.10
7666;DHT22;3875;46.562;4.898;2022-09-09T02:37:51;18.70;77.00
7666;DHT22;3875;46.562;4.898;2022-09-09T02:40:18;18.70;77.00
7666;DHT22;3875;46.562;4.898;2022-09-09T02:42:46;18.70;77.10
7666;DHT22;3875;46.562;4.898;2022-09-09T02:45:16;18.70;76.90
7666;DHT22;3875;46.562;4.898;2022-09-09T02:51:21;18.70;77.00
7666;DHT22;3875;46.562;4.898;2022-09-09T02:56:23;18.70;77.40
7666;DHT22;3875;46.562;4.898;2022-09-09T02:58:51;18.60;77.10
7666;DHT22;3875;46.562;4.898;2022-09-09T03:01:17;18.60;77.50
7666;DHT22;3875;46.562;4.898;2022-09-09T03:03:43;18.60;77.60
7666;DHT22;3875;46.562;4.898;2022-09-09T03:06:10;18.50;77.90
7666;DHT22;3875;46.562;4.898;2022-09-09T03:08:37;18.60;77.70
7666;DHT22;3875;46.562;4.898;2022-09-09T03:11:03;18.50;78.10
7666;DHT22;3875;46.562;4.898;2022-09-09T03:13:29;18.50;78.00
7666;DHT22;3875;46.562;4.898;2022-09-09T03:15:55;18.50;78.00
7666;DHT22;3875;46.562;4.898;2022-09-09T03:18:21;18.50;78.00
7666;DHT22;3875;46.562;4.898;2022-09-09T03:20:47;18.50;77.90
7666;DHT22;3875;46.562;4.898;2022-09-09T03:23:16;18.50;78.00
7666;DHT22;3875;46.562;4.898;2022-09-09T03:25:51;18.40;78.10
7666;DHT22;3875;46.562;4.898;2022-09-09T03:28:17;18.40;77.90
7666;DHT22;3875;46.562;4.898;2022-09-09T03:30:43;18.30;78.60
7666;DHT22;3875;46.562;4.898;2022-09-09T03:33:09;18.30;78.60
7666;DHT22;3875;46.562;4.898;2022-09-09T03:35:35;18.20;78.80
7666;DHT22;3875;46.562;4.898;2022-09-09T03:38:01;18.30;78.70
7666;DHT22;3875;46.562;4.898;2022-09-09T03:40:27;18.20;78.70
7666;DHT22;3875;46.562;4.898;2022-09-09T03:42:52;18.20;78.70
7666;DHT22;3875;46.562;4.898;2022-09-09T03:45:18;18.20;78.50
7666;DHT22;3875;46.562;4.898;2022-09-09T03:47:44;18.20;79.10
7666;DHT22;3875;46.562;4.898;2022-09-09T03:50:10;18.20;78.80
7666;DHT22;3875;46.562;4.898;2022-09-09T03:52:37;18.20;78.90
7666;DHT22;3875;46.562;4.898;2022-09-09T03:55:04;18.20;78.70
7666;DHT22;3875;46.562;4.898;2022-09-09T03:57:31;18.20;78.60
7666;DHT22;3875;46.562;4.898;2022-09-09T03:59:57;18.20;78.60
7666;DHT22;3875;46.562;4.898;2022-09-09T04:02:23;18.20;78.50
7666;DHT22;3875;46.562;4.898;2022-09-09T04:04:49;18.20;78.70
7666;DHT22;3875;46.562;4.898;2022-09-09T04:07:15;18.20;78.80
7666;DHT22;3875;46.562;4.898;2022-09-09T04:09:41;18.10;78.50
7666;DHT22;3875;46.562;4.898;2022-09-09T04:12:07;18.10;79.10
7666;DHT22;3875;46.562;4.898;2022-09-09T04:14:32;18.00;79.30
7666;DHT22;3875;46.562;4.898;2022-09-09T04:16:58;18.00;79.40
7666;DHT22;3875;46.562;4.898;2022-09-09T04:19:25;18.00;79.70
7666;DHT22;3875;46.562;4.898;2022-09-09T04:21:51;18.00;80.00
7666;DHT22;3875;46.562;4.898;2022-09-09T04:24:17;18.00;80.00
7666;DHT22;3875;46.562;4.898;2022-09-09T04:26:43;18.00;79.80
7666;DHT22;3875;46.562;4.898;2022-09-09T04:29:09;18.00;79.80
7666;DHT22;3875;46.562;4.898;2022-09-09T04:31:35;17.90;80.00
7666;DHT22;3875;46.562;4.898;2022-09-09T04:34:01;17.90;80.20
7666;DHT22;3875;46.562;4.898;2022-09-09T04:36:32;17.90;80.20
7666;DHT22;3875;46.562;4.898;2022-09-09T04:38:57;17.90;79.90
7666;DHT22;3875;46.562;4.898;2022-09-09T04:41:23;17.90;80.10
7666;DHT22;3875;46.562;4.898;2022-09-09T04:43:49;17.80;80.20
7666;DHT22;3875;46.562;4.898;2022-09-09T04:46:15;17.90;79.90
7666;DHT22;3875;46.562;4.898;2022-09-09T04:48:43;17.90;79.80
7666;DHT22;3875;46.562;4.898;2022-09-09T04:51:12;17.90;79.80
7666;DHT22;3875;46.562;4.898;2022-09-09T04:53:38;17.90;79.80
7666;DHT22;3875;46.562;4.898;2022-09-09T04:56:10;17.80;79.80
7666;DHT22;3875;46.562;4.898;2022-09-09T04:58:37;17.80;80.10
7666;DHT22;3875;46.562;4.898;2022-09-09T05:01:08;17.80;79.90
7666;DHT22;3875;46.562;4.898;2022-09-09T05:03:34;17.80;79.90
7666;DHT22;3875;46.562;4.898;2022-09-09T05:06:08;17.70;79.90
7666;DHT22;3875;46.562;4.898;2022-09-09T05:08:38;17.70;79.90
7666;DHT22;3875;46.562;4.898;2022-09-09T05:13:43;17.70;80.00
7666;DHT22;3875;46.562;4.898;2022-09-09T05:16:09;17.60;80.20
7666;DHT22;3875;46.562;4.898;2022-09-09T05:18:38;17.60;80.30
7666;DHT22;3875;46.562;4.898;2022-09-09T05:21:04;17.60;80.50
7666;DHT22;3875;46.562;4.898;2022-09-09T05:23:29;17.50;80.60
7666;DHT22;3875;46.562;4.898;2022-09-09T05:25:56;17.50;80.60
7666;DHT22;3875;46.562;4.898;2022-09-09T05:28:26;17.50;80.70
7666;DHT22;3875;46.562;4.898;2022-09-09T05:30:59;17.50;80.70
7666;DHT22;3875;46.562;4.898;2022-09-09T05:33:30;17.50;80.70
7666;DHT22;3875;46.562;4.898;2022-09-09T05:36:01;17.50;80.70
7666;DHT22;3875;46.562;4.898;2022-09-09T05:38:28;17.60;80.50
7666;DHT22;3875;46.562;4.898;2022-09-09T05:40:54;17.50;80.50
7666;DHT22;3875;46.562;4.898;2022-09-09T05:43:22;17.50;80.50
7666;DHT22;3875;46.562;4.898;2022-09-09T05:45:48;17.50;80.80
7666;DHT22;3875;46.562;4.898;2022-09-09T05:48:23;17.50;80.70
7666;DHT22;3875;46.562;4.898;2022-09-09T05:50:53;17.60;80.60
7666;DHT22;3875;46.562;4.898;2022-09-09T05:53:19;17.60;80.80
7666;DHT22;3875;46.562;4.898;2022-09-09T05:55:45;17.70;80.50
7666;DHT22;3875;46.562;4.898;2022-09-09T05:58:11;17.70;80.60
7666;DHT22;3875;46.562;4.898;2022-09-09T06:00:37;17.80;80.50
7666;DHT22;3875;46.562;4.898;2022-09-09T06:03:03;17.90;80.30
7666;DHT22;3875;46.562;4.898;2022-09-09T06:05:29;17.90;80.00
7666;DHT22;3875;46.562;4.898;2022-09-09T06:07:55;18.00;80.00
7666;DHT22;3875;46.562;4.898;2022-09-09T06:10:21;18.00;80.00
7666;DHT22;3875;46.562;4.898;2022-09-09T06:12:47;18.10;79.90
7666;DHT22;3875;46.562;4.898;2022-09-09T06:15:12;18.10;79.80
7666;DHT22;3875;46.562;4.898;2022-09-09T06:17:38;18.20;79.50
7666;DHT22;3875;46.562;4.898;2022-09-09T06:20:04;18.20;79.40
7666;DHT22;3875;46.562;4.898;2022-09-09T06:22:30;18.20;79.50
7666;DHT22;3875;46.562;4.898;2022-09-09T06:24:56;18.20;79.40
7666;DHT22;3875;46.562;4.898;2022-09-09T06:27:22;18.30;79.40
7666;DHT22;3875;46.562;4.898;2022-09-09T06:29:48;18.50;78.80
7666;DHT22;3875;46.562;4.898;2022-09-09T06:32:13;18.60;78.40
7666;DHT22;3875;46.562;4.898;2022-09-09T06:34:39;18.70;78.10
7666;DHT22;3875;46.562;4.898;2022-09-09T06:37:05;18.70;78.00
7666;DHT22;3875;46.562;4.898;2022-09-09T06:39:32;18.60;77.70
7666;DHT22;3875;46.562;4.898;2022-09-09T06:41:57;18.60;77.80
7666;DHT22;3875;46.562;4.898;2022-09-09T06:44:24;18.60;77.80
7666;DHT22;3875;46.562;4.898;2022-09-09T06:46:52;18.60;77.90
7666;DHT22;3875;46.562;4.898;2022-09-09T06:49:18;18.60;77.90
7666;DHT22;3875;46.562;4.898;2022-09-09T06:51:44;18.60;77.70
7666;DHT22;3875;46.562;4.898;2022-09-09T06:54:11;18.60;77.80
7666;DHT22;3875;46.562;4.898;2022-09-09T06:56:39;18.70;77.80
7666;DHT22;3875;46.562;4.898;2022-09-09T06:59:08;18.90;77.60
7666;DHT22;3875;46.562;4.898;2022-09-09T07:01:40;19.10;76.90
7666;DHT22;3875;46.562;4.898;2022-09-09T07:04:07;19.30;76.20
7666;DHT22;3875;46.562;4.898;2022-09-09T07:06:38;19.20;76.00
7666;DHT22;3875;46.562;4.898;2022-09-09T07:09:12;19.30;76.10
7666;DHT22;3875;46.562;4.898;2022-09-09T07:11:43;19.30;75.90
7666;DHT22;3875;46.562;4.898;2022-09-09T07:14:09;19.20;75.80
7666;DHT22;3875;46.562;4.898;2022-09-09T07:16:35;19.20;75.80
7666;DHT22;3875;46.562;4.898;2022-09-09T07:19:03;19.10;76.10
7666;DHT22;3875;46.562;4.898;2022-09-09T07:21:30;19.10;76.00
7666;DHT22;3875;46.562;4.898;2022-09-09T07:23:56;19.10;76.20
7666;DHT22;3875;46.562;4.898;2022-09-09T07:26:25;19.00;76.10
7666;DHT22;3875;46.562;4.898;2022-09-09T07:28:51;19.20;76.20
7666;DHT22;3875;46.562;4.898;2022-09-09T07:31:21;19.50;75.40
7666;DHT22;3875;46.562;4.898;2022-09-09T07:33:48;20.00;74.40
7666;DHT22;3875;46.562;4.898;2022-09-09T07:38:52;20.20;73.50
7666;DHT22;3875;46.562;4.898;2022-09-09T07:41:22;20.10;73.50
7666;DHT22;3875;46.562;4.898;2022-09-09T07:43:49;20.00;73.20
7666;DHT22;3875;46.562;4.898;2022-09-09T07:46:17;19.90;73.70
7666;DHT22;3875;46.562;4.898;2022-09-09T07:48:48;19.90;74.00
7666;DHT22;3875;46.562;4.898;2022-09-09T07:51:19;19.80;73.90
7666;DHT22;3875;46.562;4.898;2022-09-09T07:53:47;19.70;74.30
7666;DHT22;3875;46.562;4.898;2022-09-09T07:56:16;19.70;74.50
7666;DHT22;3875;46.562;4.898;2022-09-09T07:58:45;19.70;74.80
7666;DHT22;3875;46.562;4.898;2022-09-09T08:03:38;20.00;74.70
7666;DHT22;3875;46.562;4.898;2022-09-09T08:06:07;20.10;74.40
7666;DHT22;3875;46.562;4.898;2022-09-09T08:08:35;20.20;73.30
7666;DHT22;3875;46.562;4.898;2022-09-09T08:11:09;20.20;72.90
7666;DHT22;3875;46.562;4.898;2022-09-09T08:13:36;20.50;72.90
7666;DHT22;3875;46.562;4.898;2022-09-09T08:16:12;20.70;72.10
7666;DHT22;3875;46.562;4.898;2022-09-09T08:18:38;20.90;70.90
7666;DHT22;3875;46.562;4.898;2022-09-09T08:21:09;20.80;70.80
7666;DHT22;3875;46.562;4.898;2022-09-09T08:23:38;21.10;70.60
7666;DHT22;3875;46.562;4.898;2022-09-09T08:26:11;21.30;70.30
7666;DHT22;3875;46.562;4.898;2022-09-09T08:28:38;21.60;69.40
7666;DHT22;3875;46.562;4.898;2022-09-09T08:31:13;21.90;69.10
7666;DHT22;3875;46.562;4.898;2022-09-09T08:33:39;22.10;67.80
7666;DHT22;3875;46.562;4.898;2022-09-09T08:36:08;22.10;67.20
7666;DHT22;3875;46.562;4.898;2022-09-09T08:38:34;22.10;67.70
7666;DHT22;3875;46.562;4.898;2022-09-09T08:43:46;22.20;67.70
7666;DHT22;3875;46.562;4.898;2022-09-09T08:46:20;22.30;67.30
7666;DHT22;3875;46.562;4.898;2022-09-09T08:48:58;22.20;67.40
7666;DHT22;3875;46.562;4.898;2022-09-09T08:51:28;22.20;67.60
7666;DHT22;3875;46.562;4.898;2022-09-09T08:53:57;22.30;67.40
7666;DHT22;3875;46.562;4.898;2022-09-09T08:56:24;22.40;67.00
7666;DHT22;3875;46.562;4.898;2022-09-09T08:58:54;22.60;66.60
7666;DHT22;3875;46.562;4.898;2022-09-09T09:12:29;23.30;64.40
7666;DHT22;3875;46.562;4.898;2022-09-09T09:14:59;23.30;63.70
7666;DHT22;3875;46.562;4.898;2022-09-09T09:17:28;23.40;63.70
7666;DHT22;3875;46.562;4.898;2022-09-09T09:19:57;23.50;63.80
7666;DHT22;3875;46.562;4.898;2022-09-09T09:22:47;23.80;62.00
7666;DHT22;3875;46.562;4.898;2022-09-09T09:25:22;23.90;62.10
7666;DHT22;3875;46.562;4.898;2022-09-09T09:27:59;23.80;62.10
7666;DHT22;3875;46.562;4.898;2022-09-09T09:30:37;23.60;62.00
7666;DHT22;3875;46.562;4.898;2022-09-09T09:33:06;23.20;62.70
7666;DHT22;3875;46.562;4.898;2022-09-09T09:35:34;23.40;63.80
7666;DHT22;3875;46.562;4.898;2022-09-09T09:37:59;23.80;62.60
7666;DHT22;3875;46.562;4.898;2022-09-09T09:40:26;24.20;62.00
7666;DHT22;3875;46.562;4.898;2022-09-09T09:42:54;24.60;61.70
7666;DHT22;3875;46.562;4.898;2022-09-09T09:45:34;24.70;60.10
7666;DHT22;3875;46.562;4.898;2022-09-09T09:48:05;24.80;60.70
7666;DHT22;3875;46.562;4.898;2022-09-09T09:50:32;24.80;59.90
7666;DHT22;3875;46.562;4.898;2022-09-09T09:53:01;25.00;60.20
7666;DHT22;3875;46.562;4.898;2022-09-09T09:55:29;25.20;59.70
7666;DHT22;3875;46.562;4.898;2022-09-09T09:58:04;25.20;59.00
7666;DHT22;3875;46.562;4.898;2022-09-09T10:00:32;25.40;59.50
7666;DHT22;3875;46.562;4.898;2022-09-09T10:03:00;25.30;59.10
7666;DHT22;3875;46.562;4.898;2022-09-09T10:05:28;25.20;59.70
7666;DHT22;3875;46.562;4.898;2022-09-09T10:08:13;25.00;60.10
7666;DHT22;3875;46.562;4.898;2022-09-09T10:13:15;25.20;58.50
7666;DHT22;3875;46.562;4.898;2022-09-09T10:27:03;24.60;60.50
7666;DHT22;3875;46.562;4.898;2022-09-09T10:34:56;25.90;58.80
7666;DHT22;3875;46.562;4.898;2022-09-09T10:37:39;26.50;57.50
7666;DHT22;3875;46.562;4.898;2022-09-09T10:40:24;26.60;56.70
7666;DHT22;3875;46.562;4.898;2022-09-09T10:42:59;26.50;56.30
7666;DHT22;3875;46.562;4.898;2022-09-09T10:45:35;26.20;57.20
7666;DHT22;3875;46.562;4.898;2022-09-09T10:48:31;26.10;57.30
7666;DHT22;3875;46.562;4.898;2022-09-09T10:51:39;25.80;57.40
7666;DHT22;3875;46.562;4.898;2022-09-09T10:56:38;25.30;58.10
7666;DHT22;3875;46.562;4.898;2022-09-09T10:59:14;24.90;59.10
7666;DHT22;3875;46.562;4.898;2022-09-09T11:01:53;24.50;59.00
7666;DHT22;3875;46.562;4.898;2022-09-09T11:04:50;24.30;60.00
7666;DHT22;3875;46.562;4.898;2022-09-09T11:07:37;24.30;60.70
7666;DHT22;3875;46.562;4.898;2022-09-09T11:10:14;24.20;60.30
7666;DHT22;3875;46.562;4.898;2022-09-09T11:12:43;24.00;60.80
7666;DHT22;3875;46.562;4.898;2022-09-09T11:15:22;23.90;61.60
7666;DHT22;3875;46.562;4.898;2022-09-09T11:17:55;23.80;61.60
7666;DHT22;3875;46.562;4.898;2022-09-09T11:20:22;23.80;61.90
7666;DHT22;3875;46.562;4.898;2022-09-09T11:22:51;23.80;63.00
7666;DHT22;3875;46.562;4.898;2022-09-09T11:25:25;23.90;62.40
7666;DHT22;3875;46.562;4.898;2022-09-09T11:41:39;23.90;60.70
7666;DHT22;3875;46.562;4.898;2022-09-09T11:44:12;24.20;60.90
7666;DHT22;3875;46.562;4.898;2022-09-09T11:46:49;24.70;60.80
7666;DHT22;3875;46.562;4.898;2022-09-09T11:49:39;24.70;59.60
7666;DHT22;3875;46.562;4.898;2022-09-09T11:55:10;23.80;60.20
7666;DHT22;3875;46.562;4.898;2022-09-09T11:57:38;23.30;61.90
7666;DHT22;3875;46.562;4.898;2022-09-09T12:00:05;22.90;62.80
7666;DHT22;3875;46.562;4.898;2022-09-09T12:02:31;22.60;62.70
7666;DHT22;3875;46.562;4.898;2022-09-09T12:05:02;22.50;63.40
7666;DHT22;3875;46.562;4.898;2022-09-09T12:10:22;22.50;64.10
7666;DHT22;3875;46.562;4.898;2022-09-09T12:12:50;22.60;63.70
7666;DHT22;3875;46.562;4.898;2022-09-09T12:17:44;22.80;63.00
7666;DHT22;3875;46.562;4.898;2022-09-09T12:20:17;23.00;63.50
7666;DHT22;3875;46.562;4.898;2022-09-09T12:26:04;23.40;62.40
7666;DHT22;3875;46.562;4.898;2022-09-09T12:34:10;25.10;60.40
7666;DHT22;3875;46.562;4.898;2022-09-09T12:36:37;25.10;59.70
7666;DHT22;3875;46.562;4.898;2022-09-09T12:39:49;24.90;60.00
7666;DHT22;3875;46.562;4.898;2022-09-09T12:42:21;24.60;59.20
7666;DHT22;3875;46.562;4.898;2022-09-09T12:44:51;24.20;60.00
7666;DHT22;3875;46.562;4.898;2022-09-09T12:47:19;23.80;61.10
7666;DHT22;3875;46.562;4.898;2022-09-09T12:49:47;23.50;61.50
7666;DHT22;3875;46.562;4.898;2022-09-09T12:54:56;23.60;61.80
7666;DHT22;3875;46.562;4.898;2022-09-09T12:57:24;23.60;62.10
7666;DHT22;3875;46.562;4.898;2022-09-09T12:59:51;23.80;61.50
7666;DHT22;3875;46.562;4.898;2022-09-09T13:02:25;23.90;61.60
7666;DHT22;3875;46.562;4.898;2022-09-09T13:04:52;24.20;61.20
7666;DHT22;3875;46.562;4.898;2022-09-09T13:07:20;24.30;60.70
7666;DHT22;3875;46.562;4.898;2022-09-09T13:09:48;24.40;60.30
7666;DHT22;3875;46.562;4.898;2022-09-09T13:12:22;24.70;60.30
7666;DHT22;3875;46.562;4.898;2022-09-09T13:14:53;25.20;59.70
7666;DHT22;3875;46.562;4.898;2022-09-09T13:17:23;25.70;58.70
7666;DHT22;3875;46.562;4.898;2022-09-09T13:19:50;25.90;57.50
7666;DHT22;3875;46.562;4.898;2022-09-09T13:22:36;25.90;57.60
7666;DHT22;3875;46.562;4.898;2022-09-09T13:27:56;26.20;57.00
7666;DHT22;3875;46.562;4.898;2022-09-09T13:35:35;26.40;56.60
7666;DHT22;3875;46.562;4.898;2022-09-09T13:38:10;26.10;57.30
7666;DHT22;3875;46.562;4.898;2022-09-09T13:40:36;25.90;57.40
7666;DHT22;3875;46.562;4.898;2022-09-09T13:43:03;25.70;57.00
7666;DHT22;3875;46.562;4.898;2022-09-09T13:45:31;25.60;57.40
7666;DHT22;3875;46.562;4.898;2022-09-09T13:47:56;25.80;57.30
7666;DHT22;3875;46.562;4.898;2022-09-09T13:50:28;26.10;57.10
7666;DHT22;3875;46.562;4.898;2022-09-09T13:52:56;25.90;56.30
7666;DHT22;3875;46.562;4.898;2022-09-09T13:55:27;25.90;56.70
7666;DHT22;3875;46.562;4.898;2022-09-09T13:57:55;25.80;56.90
7666;DHT22;3875;46.562;4.898;2022-09-09T14:00:23;25.90;57.00
7666;DHT22;3875;46.562;4.898;2022-09-09T14:02:50;25.80;56.70
7666;DHT22;3875;46.562;4.898;2022-09-09T14:05:17;25.60;57.60
7666;DHT22;3875;46.562;4.898;2022-09-09T14:07:43;25.70;57.40
7666;DHT22;3875;46.562;4.898;2022-09-09T14:10:10;25.70;57.70
7666;DHT22;3875;46.562;4.898;2022-09-09T14:12:36;25.70;58.00
7666;DHT22;3875;46.562;4.898;2022-09-09T14:15:09;25.90;57.40
7666;DHT22;3875;46.562;4.898;2022-09-09T14:17:35;26.20;56.50
7666;DHT22;3875;46.562;4.898;2022-09-09T14:20:05;26.40;56.10
7666;DHT22;3875;46.562;4.898;2022-09-09T14:22:34;26.60;56.20
7666;DHT22;3875;46.562;4.898;2022-09-09T14:25:00;26.80;55.80
7666;DHT22;3875;46.562;4.898;2022-09-09T14:27:25;26.90;55.80
7666;DHT22;3875;46.562;4.898;2022-09-09T14:29:52;26.90;55.40
7666;DHT22;3875;46.562;4.898;2022-09-09T14:32:18;26.80;55.20
7666;DHT22;3875;46.562;4.898;2022-09-09T14:34:44;26.60;55.40
7666;DHT22;3875;46.562;4.898;2022-09-09T14:37:10;26.60;55.70
7666;DHT22;3875;46.562;4.898;2022-09-09T14:39:36;26.60;55.80
7666;DHT22;3875;46.562;4.898;2022-09-09T14:42:02;26.40;55.50
7666;DHT22;3875;46.562;4.898;2022-09-09T14:44:28;26.30;55.60
7666;DHT22;3875;46.562;4.898;2022-09-09T14:46:54;26.40;55.90
7666;DHT22;3875;46.562;4.898;2022-09-09T14:49:20;26.60;55.90
7666;DHT22;3875;46.562;4.898;2022-09-09T14:51:46;26.70;55.60
7666;DHT22;3875;46.562;4.898;2022-09-09T14:54:11;26.60;54.80
7666;DHT22;3875;46.562;4.898;2022-09-09T14:56:37;26.50;55.20
7666;DHT22;3875;46.562;4.898;2022-09-09T14:59:04;26.20;54.60
7666;DHT22;3875;46.562;4.898;2022-09-09T15:01:31;25.90;55.40
7666;DHT22;3875;46.562;4.898;2022-09-09T15:04:03;25.60;55.50
7666;DHT22;3875;46.562;4.898;2022-09-09T15:06:31;25.30;55.30
7666;DHT22;3875;46.562;4.898;2022-09-09T15:08:59;24.90;56.10
7666;DHT22;3875;46.562;4.898;2022-09-09T15:11:30;24.70;56.40
7666;DHT22;3875;46.562;4.898;2022-09-09T15:13:56;24.60;56.40
7666;DHT22;3875;46.562;4.898;2022-09-09T15:16:26;24.60;57.00
7666;DHT22;3875;46.562;4.898;2022-09-09T15:18:55;24.50;57.10
7666;DHT22;3875;46.562;4.898;2022-09-09T15:21:23;24.50;57.30
7666;DHT22;3875;46.562;4.898;2022-09-09T15:23:49;24.30;57.40
7666;DHT22;3875;46.562;4.898;2022-09-09T15:26:15;24.30;57.80
7666;DHT22;3875;46.562;4.898;2022-09-09T15:28:43;24.20;58.20
7666;DHT22;3875;46.562;4.898;2022-09-09T15:31:14;24.20;58.60
7666;DHT22;3875;46.562;4.898;2022-09-09T15:33:50;24.30;59.00
7666;DHT22;3875;46.562;4.898;2022-09-09T15:36:22;24.20;60.20
7666;DHT22;3875;46.562;4.898;2022-09-09T15:38:48;23.80;64.70
7666;DHT22;3875;46.562;4.898;2022-09-09T15:41:15;22.70;69.50
7666;DHT22;3875;46.562;4.898;2022-09-09T15:43:52;22.00;72.60
7666;DHT22;3875;46.562;4.898;2022-09-09T15:46:40;21.50;74.10
7666;DHT22;3875;46.562;4.898;2022-09-09T15:49:11;21.00;75.40
7666;DHT22;3875;46.562;4.898;2022-09-09T15:51:39;20.90;76.00
7666;DHT22;3875;46.562;4.898;2022-09-09T15:54:06;20.90;76.90
7666;DHT22;3875;46.562;4.898;2022-09-09T15:56:32;20.80;77.60
7666;DHT22;3875;46.562;4.898;2022-09-09T15:58:59;20.60;77.80
7666;DHT22;3875;46.562;4.898;2022-09-09T16:01:26;20.60;78.00
7666;DHT22;3875;46.562;4.898;2022-09-09T16:03:52;20.50;78.90
7666;DHT22;3875;46.562;4.898;2022-09-09T16:06:20;20.20;79.80
7666;DHT22;3875;46.562;4.898;2022-09-09T16:08:48;20.20;79.80
7666;DHT22;3875;46.562;4.898;2022-09-09T16:11:20;20.40;79.90
7666;DHT22;3875;46.562;4.898;2022-09-09T16:13:49;20.60;79.30
7666;DHT22;3875;46.562;4.898;2022-09-09T16:16:18;20.80;78.70
7666;DHT22;3875;46.562;4.898;2022-09-09T16:18:49;20.90;78.60
7666;DHT22;3875;46.562;4.898;2022-09-09T16:23:51;20.90;77.50
7666;DHT22;3875;46.562;4.898;2022-09-09T16:26:18;21.00;77.30
7666;DHT22;3875;46.562;4.898;2022-09-09T16:28:43;20.80;77.70
7666;DHT22;3875;46.562;4.898;2022-09-09T16:31:14;20.80;78.20
7666;DHT22;3875;46.562;4.898;2022-09-09T16:33:40;20.80;78.20
7666;DHT22;3875;46.562;4.898;2022-09-09T16:36:08;20.80;78.20
7666;DHT22;3875;46.562;4.898;2022-09-09T16:38:36;20.90;78.50
7666;DHT22;3875;46.562;4.898;2022-09-09T16:41:04;20.90;78.00
7666;DHT22;3875;46.562;4.898;2022-09-09T16:43:33;20.90;78.30
7666;DHT22;3875;46.562;4.898;2022-09-09T16:45:59;20.80;78.50
7666;DHT22;3875;46.562;4.898;2022-09-09T16:48:32;20.80;78.80
7666;DHT22;3875;46.562;4.898;2022-09-09T16:51:07;20.80;78.50
7666;DHT22;3875;46.562;4.898;2022-09-09T16:53:34;20.80;78.70
7666;DHT22;3875;46.562;4.898;2022-09-09T16:56:06;20.60;78.90
7666;DHT22;3875;46.562;4.898;2022-09-09T16:58:33;20.50;79.00
7666;DHT22;3875;46.562;4.898;2022-09-09T17:01:02;20.50;78.90
7666;DHT22;3875;46.562;4.898;2022-09-09T17:03:29;20.50;78.70
7666;DHT22;3875;46.562;4.898;2022-09-09T17:05:55;20.40;79.00
7666;DHT22;3875;46.562;4.898;2022-09-09T17:08:22;20.20;79.30
7666;DHT22;3875;46.562;4.898;2022-09-09T17:10:48;20.20;79.50
7666;DHT22;3875;46.562;4.898;2022-09-09T17:13:13;20.20;79.50
7666;DHT22;3875;46.562;4.898;2022-09-09T17:15:40;20.10;80.00
7666;DHT22;3875;46.562;4.898;2022-09-09T17:18:09;20.00;80.00
7666;DHT22;3875;46.562;4.898;2022-09-09T17:20:41;20.00;80.10
7666;DHT22;3875;46.562;4.898;2022-09-09T17:23:11;20.00;80.40
7666;DHT22;3875;46.562;4.898;2022-09-09T17:25:41;20.00;80.10
7666;DHT22;3875;46.562;4.898;2022-09-09T17:28:06;19.90;79.80
7666;DHT22;3875;46.562;4.898;2022-09-09T17:30:36;19.90;80.00
7666;DHT22;3875;46.562;4.898;2022-09-09T17:33:03;19.90;79.70
7666;DHT22;3875;46.562;4.898;2022-09-09T17:35:30;19.90;79.70
7666;DHT22;3875;46.562;4.898;2022-09-09T17:37:56;19.90;79.70
7666;DHT22;3875;46.562;4.898;2022-09-09T17:40:22;19.80;79.70
7666;DHT22;3875;46.562;4.898;2022-09-09T17:42:47;19.80;79.70
7666;DHT22;3875;46.562;4.898;2022-09-09T17:45:14;19.80;79.90
7666;DHT22;3875;46.562;4.898;2022-09-09T17:47:40;19.60;80.20
7666;DHT22;3875;46.562;4.898;2022-09-09T17:50:09;19.60;80.30
7666;DHT22;3875;46.562;4.898;2022-09-09T17:52:36;19.60;80.30
7666;DHT22;3875;46.562;4.898;2022-09-09T17:55:03;19.50;80.30
7666;DHT22;3875;46.562;4.898;2022-09-09T17:57:29;19.50;80.20
7666;DHT22;3875;46.562;4.898;2022-09-09T17:59:55;19.50;80.30
7666;DHT22;3875;46.562;4.898;2022-09-09T18:02:21;19.40;80.00
7666;DHT22;3875;46.562;4.898;2022-09-09T18:04:46;19.40;80.10
7666;DHT22;3875;46.562;4.898;2022-09-09T18:07:12;19.40;80.00
7666;DHT22;3875;46.562;4.898;2022-09-09T18:09:38;19.50;79.80
7666;DHT22;3875;46.562;4.898;2022-09-09T18:12:05;19.40;79.60
7666;DHT22;3875;46.562;4.898;2022-09-09T18:14:31;19.40;79.30
7666;DHT22;3875;46.562;4.898;2022-09-09T18:16:59;19.40;79.30
7666;DHT22;3875;46.562;4.898;2022-09-09T18:19:27;19.40;79.20
7666;DHT22;3875;46.562;4.898;2022-09-09T18:21:55;19.50;79.00
7666;DHT22;3875;46.562;4.898;2022-09-09T18:24:21;19.50;78.80
7666;DHT22;3875;46.562;4.898;2022-09-09T18:26:48;19.60;78.60
7666;DHT22;3875;46.562;4.898;2022-09-09T18:29:17;19.70;78.50